Pedro Luro, Argentina
Current Conditions -  °F | °C
As of 12:00 AM on Saturday 29 Nov 2014 (Local Time) from SAZN Reporting Station
Broken Clouds Broken Clouds  
Wind Chill: 66°   Ceiling: 20000
Heat Index: 66°   Visibility: 6mi
Dew Point: 36°   Wind: 12mph
Humidity: 32%   Direction: 230°SW
Pressure: 29.77"   Gusts: NA
Location:  39.48°S, 62.68°W
Report Text: SAZN 290300Z 23010KT 9999 SCT050 SCT100BKN200 19/02 Q1008
Loading
Personal Weather Stations






























Interactive Weather Map New forecast layout! Learn more

10-Day Weather Forecast

Advertisements
Track Severe Weather on mobile